sensor_id;sensor_type;location;lat;lon;timestamp;pressure;altitude;pressure_sealevel;temperature;humidity
6032;BME280;3044;43.232;27.972;2024-02-26T00:00:42;45209.03;;;-143.84;77.26
6032;BME280;3044;43.232;27.972;2024-02-26T00:03:09;45216.63;;;-143.84;76.99
6032;BME280;3044;43.232;27.972;2024-02-26T00:05:37;45186.16;;;-143.84;75.97
6032;BME280;3044;43.232;27.972;2024-02-26T00:08:05;45184.25;;;-143.84;75.77
6032;BME280;3044;43.232;27.972;2024-02-26T00:10:32;45203.31;;;-143.84;75.84
6032;BME280;3044;43.232;27.972;2024-02-26T00:13:00;45176.66;;;-143.84;76.13
6032;BME280;3044;43.232;27.972;2024-02-26T00:15:27;45170.94;;;-143.84;75.68
6032;BME280;3044;43.232;27.972;2024-02-26T00:17:54;45191.88;;;-143.84;75.63
6032;BME280;3044;43.232;27.972;2024-02-26T00:20:21;45170.94;;;-143.84;76.00
6032;BME280;3044;43.232;27.972;2024-02-26T00:22:50;45197.59;;;-143.84;75.78
6032;BME280;3044;43.232;27.972;2024-02-26T00:25:17;45167.13;;;-143.84;75.48
6032;BME280;3044;43.232;27.972;2024-02-26T00:27:44;45195.69;;;-143.84;75.67
6032;BME280;3044;43.232;27.972;2024-02-26T00:30:12;45180.47;;;-143.84;75.52
6032;BME280;3044;43.232;27.972;2024-02-26T00:32:39;45197.59;;;-143.84;75.46
6032;BME280;3044;43.232;27.972;2024-02-26T00:35:07;45176.66;;;-143.84;75.52
6032;BME280;3044;43.232;27.972;2024-02-26T00:37:35;45228.06;;;-143.84;75.34
6032;BME280;3044;43.232;27.972;2024-02-26T00:40:04;45188.06;;;-143.84;75.13
6032;BME280;3044;43.232;27.972;2024-02-26T00:42:32;45188.06;;;-143.84;75.29
6032;BME280;3044;43.232;27.972;2024-02-26T00:44:59;45191.88;;;-143.84;75.11
6032;BME280;3044;43.232;27.972;2024-02-26T00:47:26;45180.47;;;-143.84;75.17
6032;BME280;3044;43.232;27.972;2024-02-26T00:49:54;45197.59;;;-143.84;75.80
6032;BME280;3044;43.232;27.972;2024-02-26T00:52:21;45189.97;;;-143.84;76.77
6032;BME280;3044;43.232;27.972;2024-02-26T00:54:48;45199.50;;;-143.84;77.16
6032;BME280;3044;43.232;27.972;2024-02-26T00:57:17;45167.13;;;-143.84;77.25
6032;BME280;3044;43.232;27.972;2024-02-26T00:59:44;45188.06;;;-143.84;77.38
6032;BME280;3044;43.232;27.972;2024-02-26T01:02:11;45176.66;;;-143.84;77.81
6032;BME280;3044;43.232;27.972;2024-02-26T01:04:38;45214.72;;;-143.84;77.85
6032;BME280;3044;43.232;27.972;2024-02-26T01:07:05;45170.94;;;-143.84;77.96
6032;BME280;3044;43.232;27.972;2024-02-26T01:09:32;45189.97;;;-143.84;77.82
6032;BME280;3044;43.232;27.972;2024-02-26T01:12:00;45212.84;;;-143.84;77.70
6032;BME280;3044;43.232;27.972;2024-02-26T01:14:29;45169.03;;;-143.84;77.14
6032;BME280;3044;43.232;27.972;2024-02-26T01:16:56;45205.22;;;-143.84;77.48
6032;BME280;3044;43.232;27.972;2024-02-26T01:19:23;45170.94;;;-143.84;78.17
6032;BME280;3044;43.232;27.972;2024-02-26T01:21:51;45189.97;;;-143.84;78.13
6032;BME280;3044;43.232;27.972;2024-02-26T01:24:18;45178.56;;;-143.84;78.20
6032;BME280;3044;43.232;27.972;2024-02-26T01:26:45;45205.22;;;-143.84;78.14
6032;BME280;3044;43.232;27.972;2024-02-26T01:29:12;45170.94;;;-143.84;77.41
6032;BME280;3044;43.232;27.972;2024-02-26T01:31:40;45186.16;;;-143.84;77.46
6032;BME280;3044;43.232;27.972;2024-02-26T01:34:07;45199.50;;;-143.84;77.74
6032;BME280;3044;43.232;27.972;2024-02-26T01:36:35;45210.94;;;-143.84;77.98
6032;BME280;3044;43.232;27.972;2024-02-26T01:39:02;45180.47;;;-143.84;77.94
6032;BME280;3044;43.232;27.972;2024-02-26T01:41:29;45188.06;;;-143.84;78.13
6032;BME280;3044;43.232;27.972;2024-02-26T01:43:57;45184.25;;;-143.84;77.94
6032;BME280;3044;43.232;27.972;2024-02-26T01:46:24;45220.44;;;-143.84;78.14
6032;BME280;3044;43.232;27.972;2024-02-26T01:48:53;45207.13;;;-143.84;78.71
6032;BME280;3044;43.232;27.972;2024-02-26T01:51:20;45195.69;;;-143.84;79.99
6032;BME280;3044;43.232;27.972;2024-02-26T01:53:48;45207.13;;;-143.84;80.48
6032;BME280;3044;43.232;27.972;2024-02-26T01:56:16;45201.41;;;-143.84;81.13
6032;BME280;3044;43.232;27.972;2024-02-26T01:58:44;45186.16;;;-143.84;81.32
6032;BME280;3044;43.232;27.972;2024-02-26T02:01:11;45174.75;;;-143.84;81.38
6032;BME280;3044;43.232;27.972;2024-02-26T02:03:39;45186.16;;;-143.84;81.32
6032;BME280;3044;43.232;27.972;2024-02-26T02:06:08;45170.94;;;-143.84;81.21
6032;BME280;3044;43.232;27.972;2024-02-26T02:08:36;45193.78;;;-143.84;81.12
6032;BME280;3044;43.232;27.972;2024-02-26T02:11:04;45207.13;;;-143.84;80.83
6032;BME280;3044;43.232;27.972;2024-02-26T02:13:31;45220.44;;;-143.84;80.94
6032;BME280;3044;43.232;27.972;2024-02-26T02:15:58;45199.50;;;-143.84;81.13
6032;BME280;3044;43.232;27.972;2024-02-26T02:18:26;45203.31;;;-143.84;81.38
6032;BME280;3044;43.232;27.972;2024-02-26T02:20:55;45188.06;;;-143.84;81.98
6032;BME280;3044;43.232;27.972;2024-02-26T02:23:25;45229.97;;;-143.84;82.67
6032;BME280;3044;43.232;27.972;2024-02-26T02:25:52;45203.31;;;-143.84;83.09
6032;BME280;3044;43.232;27.972;2024-02-26T02:28:20;45155.69;;;-143.84;83.83
6032;BME280;3044;43.232;27.972;2024-02-26T02:30:48;45191.88;;;-143.84;85.46
6032;BME280;3044;43.232;27.972;2024-02-26T02:33:16;45193.78;;;-143.84;86.59
6032;BME280;3044;43.232;27.972;2024-02-26T02:35:43;45220.44;;;-143.84;87.37
6032;BME280;3044;43.232;27.972;2024-02-26T02:38:12;45203.31;;;-143.84;87.85
6032;BME280;3044;43.232;27.972;2024-02-26T02:40:39;45189.97;;;-143.84;88.05
6032;BME280;3044;43.232;27.972;2024-02-26T02:43:07;45226.16;;;-143.84;88.32
6032;BME280;3044;43.232;27.972;2024-02-26T02:45:34;45235.69;;;-143.84;88.62
6032;BME280;3044;43.232;27.972;2024-02-26T02:48:01;45209.03;;;-143.84;88.68
6032;BME280;3044;43.232;27.972;2024-02-26T02:50:28;45207.13;;;-143.84;88.91
6032;BME280;3044;43.232;27.972;2024-02-26T02:52:55;45189.97;;;-143.84;88.81
6032;BME280;3044;43.232;27.972;2024-02-26T02:55:24;45199.50;;;-143.84;88.93
6032;BME280;3044;43.232;27.972;2024-02-26T02:57:51;45186.16;;;-143.84;89.07
6032;BME280;3044;43.232;27.972;2024-02-26T03:00:19;45199.50;;;-143.84;89.24
6032;BME280;3044;43.232;27.972;2024-02-26T03:02:48;45199.50;;;-143.84;89.57
6032;BME280;3044;43.232;27.972;2024-02-26T03:05:15;45212.84;;;-143.84;89.74
6032;BME280;3044;43.232;27.972;2024-02-26T03:07:42;45203.31;;;-143.84;89.69
6032;BME280;3044;43.232;27.972;2024-02-26T03:10:09;45201.41;;;-143.84;89.89
6032;BME280;3044;43.232;27.972;2024-02-26T03:12:38;45197.59;;;-143.84;90.19
6032;BME280;3044;43.232;27.972;2024-02-26T03:15:06;45188.06;;;-143.84;90.19
6032;BME280;3044;43.232;27.972;2024-02-26T03:17:33;45207.13;;;-143.84;90.58
6032;BME280;3044;43.232;27.972;2024-02-26T03:20:00;45195.69;;;-143.84;90.58
6032;BME280;3044;43.232;27.972;2024-02-26T03:22:29;45205.22;;;-143.84;91.65
6032;BME280;3044;43.232;27.972;2024-02-26T03:24:57;45199.50;;;-143.84;92.12
6032;BME280;3044;43.232;27.972;2024-02-26T03:27:24;45199.50;;;-143.84;92.20
6032;BME280;3044;43.232;27.972;2024-02-26T03:29:53;45222.34;;;-143.84;92.14
6032;BME280;3044;43.232;27.972;2024-02-26T03:32:20;45199.50;;;-143.84;92.07
6032;BME280;3044;43.232;27.972;2024-02-26T03:34:47;45220.44;;;-143.84;92.02
6032;BME280;3044;43.232;27.972;2024-02-26T03:37:14;45193.78;;;-143.84;91.98
6032;BME280;3044;43.232;27.972;2024-02-26T03:39:42;45197.59;;;-143.84;91.60
6032;BME280;3044;43.232;27.972;2024-02-26T03:42:09;45184.25;;;-143.84;91.63
6032;BME280;3044;43.232;27.972;2024-02-26T03:44:36;45212.84;;;-143.84;91.25
6032;BME280;3044;43.232;27.972;2024-02-26T03:47:05;45203.31;;;-143.84;90.69
6032;BME280;3044;43.232;27.972;2024-02-26T03:49:32;45218.53;;;-143.84;90.49
6032;BME280;3044;43.232;27.972;2024-02-26T03:51:59;45205.22;;;-143.84;90.29
6032;BME280;3044;43.232;27.972;2024-02-26T03:54:26;45216.63;;;-143.84;90.06
6032;BME280;3044;43.232;27.972;2024-02-26T03:56:53;45209.03;;;-143.84;89.40
6032;BME280;3044;43.232;27.972;2024-02-26T03:59:20;45203.31;;;-143.84;88.87
6032;BME280;3044;43.232;27.972;2024-02-26T04:01:49;45197.59;;;-143.84;88.65
6032;BME280;3044;43.232;27.972;2024-02-26T04:04:18;45193.78;;;-143.84;87.94
6032;BME280;3044;43.232;27.972;2024-02-26T04:06:45;45207.13;;;-143.84;87.42
6032;BME280;3044;43.232;27.972;2024-02-26T04:09:13;45214.72;;;-143.84;87.45
6032;BME280;3044;43.232;27.972;2024-02-26T04:11:40;45210.94;;;-143.84;87.91
6032;BME280;3044;43.232;27.972;2024-02-26T04:14:08;45218.53;;;-143.84;89.19
6032;BME280;3044;43.232;27.972;2024-02-26T04:16:38;45184.25;;;-143.84;89.76
6032;BME280;3044;43.232;27.972;2024-02-26T04:19:05;45201.41;;;-143.84;90.61
6032;BME280;3044;43.232;27.972;2024-02-26T04:21:33;45195.69;;;-143.84;90.79
6032;BME280;3044;43.232;27.972;2024-02-26T04:24:01;45203.31;;;-143.84;90.96
6032;BME280;3044;43.232;27.972;2024-02-26T04:26:29;45260.44;;;-143.84;91.20
6032;BME280;3044;43.232;27.972;2024-02-26T04:28:57;45216.63;;;-143.84;90.60
6032;BME280;3044;43.232;27.972;2024-02-26T04:31:24;45239.50;;;-143.84;90.41
6032;BME280;3044;43.232;27.972;2024-02-26T04:33:51;45205.22;;;-143.84;90.41
6032;BME280;3044;43.232;27.972;2024-02-26T04:36:18;45201.41;;;-143.84;90.55
6032;BME280;3044;43.232;27.972;2024-02-26T04:38:47;45199.50;;;-143.84;90.41
6032;BME280;3044;43.232;27.972;2024-02-26T04:41:14;45193.78;;;-143.84;89.88
6032;BME280;3044;43.232;27.972;2024-02-26T04:43:41;45212.84;;;-143.84;89.55
6032;BME280;3044;43.232;27.972;2024-02-26T04:46:08;45220.44;;;-143.84;89.13
6032;BME280;3044;43.232;27.972;2024-02-26T04:48:36;45226.16;;;-143.84;88.73
6032;BME280;3044;43.232;27.972;2024-02-26T04:51:04;45203.31;;;-143.84;88.82
6032;BME280;3044;43.232;27.972;2024-02-26T04:53:31;45209.03;;;-143.84;89.09
6032;BME280;3044;43.232;27.972;2024-02-26T04:56:00;45207.13;;;-143.84;89.53
6032;BME280;3044;43.232;27.972;2024-02-26T04:58:27;45186.16;;;-143.84;89.71
6032;BME280;3044;43.232;27.972;2024-02-26T05:00:54;45201.41;;;-143.84;90.31
6032;BME280;3044;43.232;27.972;2024-02-26T05:03:21;45193.78;;;-143.84;90.56
6032;BME280;3044;43.232;27.972;2024-02-26T05:05:48;45207.13;;;-143.84;91.09
6032;BME280;3044;43.232;27.972;2024-02-26T05:08:15;45216.63;;;-143.84;91.63
6032;BME280;3044;43.232;27.972;2024-02-26T05:10:44;45222.34;;;-143.84;92.37
6032;BME280;3044;43.232;27.972;2024-02-26T05:13:13;45201.41;;;-143.84;92.46
6032;BME280;3044;43.232;27.972;2024-02-26T05:15:41;45209.03;;;-143.84;92.73
6032;BME280;3044;43.232;27.972;2024-02-26T05:18:09;45233.78;;;-143.84;92.90
6032;BME280;3044;43.232;27.972;2024-02-26T05:20:36;45197.59;;;-143.84;92.88
6032;BME280;3044;43.232;27.972;2024-02-26T05:23:03;45214.72;;;-143.84;92.92
6032;BME280;3044;43.232;27.972;2024-02-26T05:25:31;45197.59;;;-143.84;93.23
6032;BME280;3044;43.232;27.972;2024-02-26T05:27:58;45199.50;;;-143.84;93.48
6032;BME280;3044;43.232;27.972;2024-02-26T05:30:26;45197.59;;;-143.84;93.82
6032;BME280;3044;43.232;27.972;2024-02-26T05:32:53;45189.97;;;-143.84;93.72
6032;BME280;3044;43.232;27.972;2024-02-26T05:35:21;45189.97;;;-143.84;93.65
6032;BME280;3044;43.232;27.972;2024-02-26T05:37:48;45178.56;;;-143.84;93.51
6032;BME280;3044;43.232;27.972;2024-02-26T05:40:15;45209.03;;;-143.84;93.28
6032;BME280;3044;43.232;27.972;2024-02-26T05:42:42;45186.16;;;-143.84;93.63
6032;BME280;3044;43.232;27.972;2024-02-26T05:45:10;45193.78;;;-143.84;93.68
6032;BME280;3044;43.232;27.972;2024-02-26T05:47:39;45199.50;;;-143.84;93.86
6032;BME280;3044;43.232;27.972;2024-02-26T05:50:09;45205.22;;;-143.84;94.05
6032;BME280;3044;43.232;27.972;2024-02-26T05:52:36;45189.97;;;-143.84;93.93
6032;BME280;3044;43.232;27.972;2024-02-26T05:55:05;45178.56;;;-143.84;94.14
6032;BME280;3044;43.232;27.972;2024-02-26T05:57:33;45199.50;;;-143.84;93.87
6032;BME280;3044;43.232;27.972;2024-02-26T06:00:00;45205.22;;;-143.84;93.67
6032;BME280;3044;43.232;27.972;2024-02-26T06:02:29;45205.22;;;-143.84;93.01
6032;BME280;3044;43.232;27.972;2024-02-26T06:04:58;45180.47;;;-143.84;92.70
6032;BME280;3044;43.232;27.972;2024-02-26T06:07:25;45210.94;;;-143.84;92.79
6032;BME280;3044;43.232;27.972;2024-02-26T06:09:52;45193.78;;;-143.84;93.48
6032;BME280;3044;43.232;27.972;2024-02-26T06:12:19;45163.31;;;-143.84;92.71
6032;BME280;3044;43.232;27.972;2024-02-26T06:14:47;45178.56;;;-143.84;92.64
6032;BME280;3044;43.232;27.972;2024-02-26T06:17:14;45189.97;;;-143.84;91.57
6032;BME280;3044;43.232;27.972;2024-02-26T06:19:41;45191.88;;;-143.84;90.28
6032;BME280;3044;43.232;27.972;2024-02-26T06:22:10;45167.13;;;-143.84;89.75
6032;BME280;3044;43.232;27.972;2024-02-26T06:24:37;45214.72;;;-143.84;88.71
6032;BME280;3044;43.232;27.972;2024-02-26T06:27:04;45197.59;;;-143.84;88.44
6032;BME280;3044;43.232;27.972;2024-02-26T06:29:32;45186.16;;;-143.84;88.30
6032;BME280;3044;43.232;27.972;2024-02-26T06:31:59;45155.69;;;-143.84;87.65
6032;BME280;3044;43.232;27.972;2024-02-26T06:34:26;45144.28;;;-143.84;87.39
6032;BME280;3044;43.232;27.972;2024-02-26T06:36:53;45159.50;;;-143.84;86.82
6032;BME280;3044;43.232;27.972;2024-02-26T06:39:21;45163.31;;;-143.84;86.57
6032;BME280;3044;43.232;27.972;2024-02-26T06:41:49;45172.84;;;-143.84;86.42
6032;BME280;3044;43.232;27.972;2024-02-26T06:44:16;45201.41;;;-143.84;86.34
6032;BME280;3044;43.232;27.972;2024-02-26T06:46:43;45157.59;;;-143.84;86.44
6032;BME280;3044;43.232;27.972;2024-02-26T06:49:10;45180.47;;;-143.84;85.66
6032;BME280;3044;43.232;27.972;2024-02-26T06:51:37;45178.56;;;-143.84;85.26
6032;BME280;3044;43.232;27.972;2024-02-26T06:54:04;45188.06;;;-143.84;84.51
6032;BME280;3044;43.232;27.972;2024-02-26T06:56:33;45197.59;;;-143.84;84.32
6032;BME280;3044;43.232;27.972;2024-02-26T06:59:00;45178.56;;;-143.84;84.20
6032;BME280;3044;43.232;27.972;2024-02-26T07:01:27;45178.56;;;-143.84;84.34
6032;BME280;3044;43.232;27.972;2024-02-26T07:03:54;45193.78;;;-143.84;85.01
6032;BME280;3044;43.232;27.972;2024-02-26T07:06:21;45167.13;;;-143.84;85.14
6032;BME280;3044;43.232;27.972;2024-02-26T07:08:48;45193.78;;;-143.84;84.43
6032;BME280;3044;43.232;27.972;2024-02-26T07:11:15;45193.78;;;-143.84;84.57
6032;BME280;3044;43.232;27.972;2024-02-26T07:13:46;45170.94;;;-143.84;85.00
6032;BME280;3044;43.232;27.972;2024-02-26T07:16:15;45161.41;;;-143.84;83.90
6032;BME280;3044;43.232;27.972;2024-02-26T07:18:42;45172.84;;;-143.84;82.85
6032;BME280;3044;43.232;27.972;2024-02-26T07:21:11;45195.69;;;-143.84;81.29
6032;BME280;3044;43.232;27.972;2024-02-26T07:23:38;45178.56;;;-143.84;81.06
6032;BME280;3044;43.232;27.972;2024-02-26T07:26:05;45163.31;;;-143.84;80.67
6032;BME280;3044;43.232;27.972;2024-02-26T07:28:34;45159.50;;;-143.84;80.24
6032;BME280;3044;43.232;27.972;2024-02-26T07:31:02;45159.50;;;-143.84;79.54
6032;BME280;3044;43.232;27.972;2024-02-26T07:33:30;45174.75;;;-143.84;79.01
6032;BME280;3044;43.232;27.972;2024-02-26T07:35:57;45170.94;;;-143.84;78.08
6032;BME280;3044;43.232;27.972;2024-02-26T07:38:24;45172.84;;;-143.84;76.89
6032;BME280;3044;43.232;27.972;2024-02-26T07:40:51;45151.91;;;-143.84;76.58
6032;BME280;3044;43.232;27.972;2024-02-26T07:43:18;45150.00;;;-143.84;76.29
6032;BME280;3044;43.232;27.972;2024-02-26T07:45:45;45176.66;;;-143.84;74.66
6032;BME280;3044;43.232;27.972;2024-02-26T07:48:14;45140.47;;;-143.84;73.45
6032;BME280;3044;43.232;27.972;2024-02-26T07:50:41;45157.59;;;-143.84;72.99
6032;BME280;3044;43.232;27.972;2024-02-26T07:53:08;45150.00;;;-143.84;73.06
6032;BME280;3044;43.232;27.972;2024-02-26T07:55:35;45157.59;;;-143.84;73.20
6032;BME280;3044;43.232;27.972;2024-02-26T07:58:02;45167.13;;;-143.84;73.22
6032;BME280;3044;43.232;27.972;2024-02-26T08:00:30;45144.28;;;-143.84;72.57
6032;BME280;3044;43.232;27.972;2024-02-26T08:02:57;45144.28;;;-143.84;70.85
6032;BME280;3044;43.232;27.972;2024-02-26T08:05:25;45161.41;;;-143.84;69.85
6032;BME280;3044;43.232;27.972;2024-02-26T08:07:53;45186.16;;;-143.84;69.38
6032;BME280;3044;43.232;27.972;2024-02-26T08:10:20;45174.75;;;-143.84;69.88
6032;BME280;3044;43.232;27.972;2024-02-26T08:12:47;45150.00;;;-143.84;69.43
6032;BME280;3044;43.232;27.972;2024-02-26T08:15:14;45163.31;;;-143.84;69.36
6032;BME280;3044;43.232;27.972;2024-02-26T08:17:42;45136.66;;;-143.84;67.72
6032;BME280;3044;43.232;27.972;2024-02-26T08:20:09;45148.09;;;-143.84;67.95
6032;BME280;3044;43.232;27.972;2024-02-26T08:22:38;45148.09;;;-143.84;66.46
6032;BME280;3044;43.232;27.972;2024-02-26T08:25:06;45146.19;;;-143.84;63.42
6032;BME280;3044;43.232;27.972;2024-02-26T08:27:34;45140.47;;;-143.84;62.87
6032;BME280;3044;43.232;27.972;2024-02-26T08:30:02;45140.47;;;-143.84;62.59
6032;BME280;3044;43.232;27.972;2024-02-26T08:32:29;45155.69;;;-143.84;61.75
6032;BME280;3044;43.232;27.972;2024-02-26T08:34:56;45148.09;;;-143.84;62.19
6032;BME280;3044;43.232;27.972;2024-02-26T08:37:23;45111.91;;;-143.84;61.83
6032;BME280;3044;43.232;27.972;2024-02-26T08:39:52;45148.09;;;-143.84;62.20
6032;BME280;3044;43.232;27.972;2024-02-26T08:42:19;45132.84;;;-143.84;62.16
6032;BME280;3044;43.232;27.972;2024-02-26T08:44:46;45146.19;;;-143.84;61.70
6032;BME280;3044;43.232;27.972;2024-02-26T08:47:14;45163.31;;;-143.84;62.54
6032;BME280;3044;43.232;27.972;2024-02-26T08:49:43;45144.28;;;-143.84;63.06
6032;BME280;3044;43.232;27.972;2024-02-26T08:52:10;45146.19;;;-143.84;61.56
6032;BME280;3044;43.232;27.972;2024-02-26T08:54:37;45150.00;;;-143.84;60.64
6032;BME280;3044;43.232;27.972;2024-02-26T08:57:06;45150.00;;;-143.84;60.72
6032;BME280;3044;43.232;27.972;2024-02-26T08:59:33;45136.66;;;-143.84;61.93
6032;BME280;3044;43.232;27.972;2024-02-26T09:02:00;45146.19;;;-143.84;61.84
6032;BME280;3044;43.232;27.972;2024-02-26T09:04:27;45130.94;;;-143.84;61.31
6032;BME280;3044;43.232;27.972;2024-02-26T09:06:54;45130.94;;;-143.84;61.19
6032;BME280;3044;43.232;27.972;2024-02-26T09:09:21;45132.84;;;-143.84;61.90
6032;BME280;3044;43.232;27.972;2024-02-26T09:11:50;45138.56;;;-143.84;63.53
6032;BME280;3044;43.232;27.972;2024-02-26T09:14:19;45140.47;;;-143.84;63.31
6032;BME280;3044;43.232;27.972;2024-02-26T09:16:46;45151.91;;;-143.84;63.17
6032;BME280;3044;43.232;27.972;2024-02-26T09:19:14;45142.38;;;-143.84;64.02
6032;BME280;3044;43.232;27.972;2024-02-26T09:21:42;45136.66;;;-143.84;62.75
6032;BME280;3044;43.232;27.972;2024-02-26T09:24:10;45119.53;;;-143.84;61.42
6032;BME280;3044;43.232;27.972;2024-02-26T09:26:37;45148.09;;;-143.84;62.44
6032;BME280;3044;43.232;27.972;2024-02-26T09:29:04;45151.91;;;-143.84;61.59
6032;BME280;3044;43.232;27.972;2024-02-26T09:31:33;45140.47;;;-143.84;64.17
6032;BME280;3044;43.232;27.972;2024-02-26T09:34:00;45127.13;;;-143.84;61.04
6032;BME280;3044;43.232;27.972;2024-02-26T09:36:27;45144.28;;;-143.84;61.13
6032;BME280;3044;43.232;27.972;2024-02-26T09:38:54;45130.94;;;-143.84;62.46
6032;BME280;3044;43.232;27.972;2024-02-26T09:41:22;45123.34;;;-143.84;57.99
6032;BME280;3044;43.232;27.972;2024-02-26T09:43:51;45125.22;;;-143.84;57.56
6032;BME280;3044;43.232;27.972;2024-02-26T09:46:21;45129.03;;;-143.84;54.93
6032;BME280;3044;43.232;27.972;2024-02-26T09:48:50;45127.13;;;-143.84;54.46
6032;BME280;3044;43.232;27.972;2024-02-26T09:51:18;45129.03;;;-143.84;54.71
6032;BME280;3044;43.232;27.972;2024-02-26T09:53:48;45132.84;;;-143.84;54.09
6032;BME280;3044;43.232;27.972;2024-02-26T09:56:18;45127.13;;;-143.84;53.74
6032;BME280;3044;43.232;27.972;2024-02-26T09:58:45;45125.22;;;-143.84;53.26
6032;BME280;3044;43.232;27.972;2024-02-26T10:01:18;45127.13;;;-143.84;52.87
6032;BME280;3044;43.232;27.972;2024-02-26T10:03:51;45130.94;;;-143.84;54.03
6032;BME280;3044;43.232;27.972;2024-02-26T10:06:19;45129.03;;;-143.84;54.43
6032;BME280;3044;43.232;27.972;2024-02-26T10:08:47;45140.47;;;-143.84;54.10
6032;BME280;3044;43.232;27.972;2024-02-26T10:11:14;45119.53;;;-143.84;55.74
6032;BME280;3044;43.232;27.972;2024-02-26T10:13:42;45119.53;;;-143.84;56.30
6032;BME280;3044;43.232;27.972;2024-02-26T10:16:09;45113.81;;;-143.84;54.54
6032;BME280;3044;43.232;27.972;2024-02-26T10:18:46;45140.47;;;-143.84;54.83
6032;BME280;3044;43.232;27.972;2024-02-26T10:21:16;45110.00;;;-143.84;53.15
6032;BME280;3044;43.232;27.972;2024-02-26T10:23:43;45132.84;;;-143.84;53.13
6032;BME280;3044;43.232;27.972;2024-02-26T10:26:12;45140.47;;;-143.84;54.79
6032;BME280;3044;43.232;27.972;2024-02-26T10:28:39;45117.63;;;-143.84;53.87
6032;BME280;3044;43.232;27.972;2024-02-26T10:31:07;45144.28;;;-143.84;54.58
6032;BME280;3044;43.232;27.972;2024-02-26T10:33:35;45138.56;;;-143.84;54.40
6032;BME280;3044;43.232;27.972;2024-02-26T10:36:03;45148.09;;;-143.84;53.52
6032;BME280;3044;43.232;27.972;2024-02-26T10:38:32;45144.28;;;-143.84;55.01
6032;BME280;3044;43.232;27.972;2024-02-26T10:41:01;45129.03;;;-143.84;55.26
6032;BME280;3044;43.232;27.972;2024-02-26T10:43:28;45157.59;;;-143.84;54.90
6032;BME280;3044;43.232;27.972;2024-02-26T10:45:56;45140.47;;;-143.84;54.72
6032;BME280;3044;43.232;27.972;2024-02-26T10:48:23;45130.94;;;-143.84;55.23
6032;BME280;3044;43.232;27.972;2024-02-26T10:50:50;45115.72;;;-143.84;55.66
6032;BME280;3044;43.232;27.972;2024-02-26T10:53:20;45121.44;;;-143.84;55.06
6032;BME280;3044;43.232;27.972;2024-02-26T10:55:54;45140.47;;;-143.84;53.78
6032;BME280;3044;43.232;27.972;2024-02-26T10:58:22;45130.94;;;-143.84;53.94
6032;BME280;3044;43.232;27.972;2024-02-26T11:00:51;45132.84;;;-143.84;55.54
6032;BME280;3044;43.232;27.972;2024-02-26T11:03:18;45132.84;;;-143.84;54.80
6032;BME280;3044;43.232;27.972;2024-02-26T11:05:47;45148.09;;;-143.84;55.75
6032;BME280;3044;43.232;27.972;2024-02-26T11:08:16;45123.34;;;-143.84;55.14
6032;BME280;3044;43.232;27.972;2024-02-26T11:10:47;45136.66;;;-143.84;54.49
6032;BME280;3044;43.232;27.972;2024-02-26T11:13:18;45140.47;;;-143.84;54.52
6032;BME280;3044;43.232;27.972;2024-02-26T11:15:46;45138.56;;;-143.84;55.05
6032;BME280;3044;43.232;27.972;2024-02-26T11:18:15;45123.34;;;-143.84;54.79
6032;BME280;3044;43.232;27.972;2024-02-26T11:20:43;45138.56;;;-143.84;54.78
6032;BME280;3044;43.232;27.972;2024-02-26T11:23:11;45144.28;;;-143.84;55.34
6032;BME280;3044;43.232;27.972;2024-02-26T11:25:38;45134.75;;;-143.84;54.96
6032;BME280;3044;43.232;27.972;2024-02-26T11:28:10;45121.44;;;-143.84;55.63
6032;BME280;3044;43.232;27.972;2024-02-26T11:30:42;45123.34;;;-143.84;55.72
6032;BME280;3044;43.232;27.972;2024-02-26T11:33:11;45144.28;;;-143.84;56.55
6032;BME280;3044;43.232;27.972;2024-02-26T11:35:40;45140.47;;;-143.84;57.56
6032;BME280;3044;43.232;27.972;2024-02-26T11:38:07;45148.09;;;-143.84;57.81
6032;BME280;3044;43.232;27.972;2024-02-26T11:40:38;45151.91;;;-143.84;58.62
6032;BME280;3044;43.232;27.972;2024-02-26T11:43:06;45127.13;;;-143.84;59.07
6032;BME280;3044;43.232;27.972;2024-02-26T11:45:51;45174.75;;;-143.84;58.25
6032;BME280;3044;43.232;27.972;2024-02-26T11:48:23;45138.56;;;-143.84;58.40
6032;BME280;3044;43.232;27.972;2024-02-26T11:50:52;45125.22;;;-143.84;58.66
6032;BME280;3044;43.232;27.972;2024-02-26T11:53:23;45150.00;;;-143.84;58.27
6032;BME280;3044;43.232;27.972;2024-02-26T11:58:59;45138.56;;;-143.84;58.74
6032;BME280;3044;43.232;27.972;2024-02-26T12:01:38;45148.09;;;-143.84;59.42
6032;BME280;3044;43.232;27.972;2024-02-26T12:04:06;45140.47;;;-143.84;58.53
6032;BME280;3044;43.232;27.972;2024-02-26T12:06:41;45150.00;;;-143.84;57.28
6032;BME280;3044;43.232;27.972;2024-02-26T12:09:08;45134.75;;;-143.84;56.71
6032;BME280;3044;43.232;27.972;2024-02-26T12:11:37;45130.94;;;-143.84;58.38
6032;BME280;3044;43.232;27.972;2024-02-26T12:14:05;45121.44;;;-143.84;58.39
6032;BME280;3044;43.232;27.972;2024-02-26T12:16:39;45142.38;;;-143.84;57.52
6032;BME280;3044;43.232;27.972;2024-02-26T12:19:10;45151.91;;;-143.84;58.10
6032;BME280;3044;43.232;27.972;2024-02-26T12:21:38;45157.59;;;-143.84;58.73
6032;BME280;3044;43.232;27.972;2024-02-26T12:24:10;45155.69;;;-143.84;59.87
6032;BME280;3044;43.232;27.972;2024-02-26T12:26:38;45153.81;;;-143.84;60.70
6032;BME280;3044;43.232;27.972;2024-02-26T12:29:06;45134.75;;;-143.84;61.45
6032;BME280;3044;43.232;27.972;2024-02-26T12:31:33;45148.09;;;-143.84;62.01
6032;BME280;3044;43.232;27.972;2024-02-26T12:34:04;45144.28;;;-143.84;62.11
6032;BME280;3044;43.232;27.972;2024-02-26T12:36:32;45150.00;;;-143.84;63.28
6032;BME280;3044;43.232;27.972;2024-02-26T12:39:01;45151.91;;;-143.84;64.39
6032;BME280;3044;43.232;27.972;2024-02-26T12:41:31;45148.09;;;-143.84;64.96
6032;BME280;3044;43.232;27.972;2024-02-26T12:43:59;45146.19;;;-143.84;63.66
6032;BME280;3044;43.232;27.972;2024-02-26T12:46:26;45148.09;;;-143.84;64.28
6032;BME280;3044;43.232;27.972;2024-02-26T12:48:56;45151.91;;;-143.84;63.79
6032;BME280;3044;43.232;27.972;2024-02-26T12:51:26;45150.00;;;-143.84;64.19
6032;BME280;3044;43.232;27.972;2024-02-26T12:53:55;45136.66;;;-143.84;65.08
6032;BME280;3044;43.232;27.972;2024-02-26T12:56:23;45153.81;;;-143.84;66.24